Nearby METAR Reports

KLWM - Lawrence,MA, USA
Distance from station: NE 12mi, 19km
Updated: Sun, 17-Dec-2017 1:54pm EST
Clear
Clear
 Wind from W
Wind: W 12 mph , 19 km/h
Temperature: 28°F , -2°C
Wind Chill: 18°F , -8°C
Dew Point: 3°F , -16°C
Humidity: 34%
Barometer: 30.22 inHg , 1023.4 hPa
Clouds: Clear
Visibility: 10 miles , 16 km
2017/12/17 18:54 KLWM 171854Z 28010KT 10SM CLR M02/M16 A3022 RMK AO2 SLP235 T10171156
KBED - Bedford,MA, USA
Distance from station: SSE 12mi, 19km
Updated: Sun, 17-Dec-2017 1:56pm EST
Partly Cloudy
Partly Cloudy
 Wind from WNW
Wind: WNW 13 mph , 20 km/h, Gust: 17 mph , 28 km/h
Temperature: 28°F , -2°C
Wind Chill: 17°F , -8°C
Dew Point: 3°F , -16°C
Humidity: 34%
Barometer: 30.21 inHg , 1023 hPa
Clouds: Partly Cloudy
Visibility: 10 miles , 16 km
Cloud details: Partly Cloudy 25000 ft
2017/12/17 18:56 KBED 171856Z 29011G15KT 10SM SCT250 M02/M16 A3021 RMK AO2 SLP246 T10221161

Metar display script from Saratoga-Weather.org